sensor_id;sensor_type;location;lat;lon;timestamp;pressure;altitude;pressure_sealevel;temperature;humidity
54808;BME280;40708;50.364;7.550;2023-03-31T00:02:06;99659.91;;;11.33;100.00
54808;BME280;40708;50.364;7.550;2023-03-31T00:04:39;99648.47;;;11.28;100.00
54808;BME280;40708;50.364;7.550;2023-03-31T00:07:12;99644.13;;;11.23;100.00
54808;BME280;40708;50.364;7.550;2023-03-31T00:09:37;99642.41;;;11.22;100.00
54808;BME280;40708;50.364;7.550;2023-03-31T00:12:05;99651.34;;;11.16;100.00
54808;BME280;40708;50.364;7.550;2023-03-31T00:14:30;99641.69;;;11.09;100.00
54808;BME280;40708;50.364;7.550;2023-03-31T00:16:55;99636.38;;;11.09;100.00
54808;BME280;40708;50.364;7.550;2023-03-31T00:19:22;99637.34;;;11.05;100.00
54808;BME280;40708;50.364;7.550;2023-03-31T00:21:47;99637.31;;;11.07;100.00
54808;BME280;40708;50.364;7.550;2023-03-31T00:24:14;99628.53;;;11.03;100.00
54808;BME280;40708;50.364;7.550;2023-03-31T00:26:40;99624.88;;;11.10;100.00
54808;BME280;40708;50.364;7.550;2023-03-31T00:29:07;99615.09;;;11.12;100.00
54808;BME280;40708;50.364;7.550;2023-03-31T00:31:33;99616.03;;;11.11;100.00
54808;BME280;40708;50.364;7.550;2023-03-31T00:33:58;99616.88;;;11.12;100.00
54808;BME280;40708;50.364;7.550;2023-03-31T00:36:24;99609.81;;;11.11;100.00
54808;BME280;40708;50.364;7.550;2023-03-31T00:38:58;99606.22;;;11.15;100.00
54808;BME280;40708;50.364;7.550;2023-03-31T00:41:24;99594.69;;;11.16;100.00
54808;BME280;40708;50.364;7.550;2023-03-31T00:44:05;99598.28;;;11.12;100.00
54808;BME280;40708;50.364;7.550;2023-03-31T00:46:36;99593.94;;;11.06;100.00
54808;BME280;40708;50.364;7.550;2023-03-31T00:49:03;99597.50;;;11.07;100.00
54808;BME280;40708;50.364;7.550;2023-03-31T00:51:31;99594.88;;;11.04;100.00
54808;BME280;40708;50.364;7.550;2023-03-31T00:54:01;99594.06;;;10.99;100.00
54808;BME280;40708;50.364;7.550;2023-03-31T00:56:32;99591.44;;;10.97;100.00
54808;BME280;40708;50.364;7.550;2023-03-31T00:59:01;99596.81;;;10.94;100.00
54808;BME280;40708;50.364;7.550;2023-03-31T01:01:27;99597.72;;;10.90;100.00
54808;BME280;40708;50.364;7.550;2023-03-31T01:03:55;99590.66;;;10.91;100.00
54808;BME280;40708;50.364;7.550;2023-03-31T01:06:21;99574.81;;;10.85;100.00
54808;BME280;40708;50.364;7.550;2023-03-31T01:08:49;99580.00;;;10.94;100.00
54808;BME280;40708;50.364;7.550;2023-03-31T01:11:18;99582.59;;;10.97;100.00
54808;BME280;40708;50.364;7.550;2023-03-31T01:13:45;99566.69;;;10.95;100.00
54808;BME280;40708;50.364;7.550;2023-03-31T01:16:14;99572.00;;;10.95;100.00
54808;BME280;40708;50.364;7.550;2023-03-31T01:18:40;99556.06;;;10.97;100.00
54808;BME280;40708;50.364;7.550;2023-03-31T01:24:37;99546.22;;;11.05;100.00
54808;BME280;40708;50.364;7.550;2023-03-31T01:27:12;99538.16;;;11.09;100.00
54808;BME280;40708;50.364;7.550;2023-03-31T01:32:42;99513.38;;;11.09;100.00
54808;BME280;40708;50.364;7.550;2023-03-31T01:38:16;99492.06;;;11.15;100.00
54808;BME280;40708;50.364;7.550;2023-03-31T01:43:58;99484.09;;;11.15;100.00
54808;BME280;40708;50.364;7.550;2023-03-31T01:46:42;99468.16;;;11.16;100.00
54808;BME280;40708;50.364;7.550;2023-03-31T01:49:18;99462.81;;;11.19;100.00
54808;BME280;40708;50.364;7.550;2023-03-31T01:51:55;99449.50;;;11.21;100.00
54808;BME280;40708;50.364;7.550;2023-03-31T01:54:33;99442.47;;;11.18;100.00
54808;BME280;40708;50.364;7.550;2023-03-31T01:57:21;99439.69;;;11.24;100.00
54808;BME280;40708;50.364;7.550;2023-03-31T02:02:27;99446.00;;;11.19;100.00
54808;BME280;40708;50.364;7.550;2023-03-31T02:04:58;99440.63;;;11.22;100.00
54808;BME280;40708;50.364;7.550;2023-03-31T02:08:05;99430.75;;;11.30;100.00
54808;BME280;40708;50.364;7.550;2023-03-31T02:10:24;99424.56;;;11.29;100.00
54808;BME280;40708;50.364;7.550;2023-03-31T02:12:52;99420.09;;;11.31;100.00
54808;BME280;40708;50.364;7.550;2023-03-31T02:15:21;99414.00;;;11.26;100.00
54808;BME280;40708;50.364;7.550;2023-03-31T02:17:50;99411.28;;;11.29;100.00
54808;BME280;40708;50.364;7.550;2023-03-31T02:20:20;99413.09;;;11.26;100.00
54808;BME280;40708;50.364;7.550;2023-03-31T02:22:49;99396.34;;;11.24;100.00
54808;BME280;40708;50.364;7.550;2023-03-31T02:25:19;99378.59;;;11.26;100.00
54808;BME280;40708;50.364;7.550;2023-03-31T02:27:53;99376.88;;;11.25;100.00
54808;BME280;40708;50.364;7.550;2023-03-31T02:30:20;99368.91;;;11.25;100.00
54808;BME280;40708;50.364;7.550;2023-03-31T02:32:45;99361.06;;;11.17;100.00
54808;BME280;40708;50.364;7.550;2023-03-31T02:35:14;99359.22;;;11.21;100.00
54808;BME280;40708;50.364;7.550;2023-03-31T02:37:41;99344.19;;;11.20;100.00
54808;BME280;40708;50.364;7.550;2023-03-31T02:40:15;99323.88;;;11.19;100.00
54808;BME280;40708;50.364;7.550;2023-03-31T02:42:41;99308.84;;;11.18;100.00
54808;BME280;40708;50.364;7.550;2023-03-31T02:48:01;99300.06;;;11.14;100.00
54808;BME280;40708;50.364;7.550;2023-03-31T02:50:36;99309.97;;;11.06;100.00
54808;BME280;40708;50.364;7.550;2023-03-31T03:04:48;99267.59;;;11.03;100.00
54808;BME280;40708;50.364;7.550;2023-03-31T03:07:36;99260.53;;;11.01;100.00
54808;BME280;40708;50.364;7.550;2023-03-31T03:10:16;99269.41;;;11.00;100.00
54808;BME280;40708;50.364;7.550;2023-03-31T03:15:32;99252.56;;;11.01;100.00
54808;BME280;40708;50.364;7.550;2023-03-31T03:17:59;99257.97;;;10.98;100.00
54808;BME280;40708;50.364;7.550;2023-03-31T03:20:26;99264.94;;;11.02;100.00
54808;BME280;40708;50.364;7.550;2023-03-31T03:22:51;99252.50;;;11.05;100.00
54808;BME280;40708;50.364;7.550;2023-03-31T03:25:16;99236.50;;;11.08;100.00
54808;BME280;40708;50.364;7.550;2023-03-31T03:27:42;99220.53;;;11.11;100.00
54808;BME280;40708;50.364;7.550;2023-03-31T03:30:10;99209.84;;;11.13;100.00
54808;BME280;40708;50.364;7.550;2023-03-31T03:32:35;99191.16;;;11.19;100.00
54808;BME280;40708;50.364;7.550;2023-03-31T03:35:03;99203.59;;;11.15;100.00
54808;BME280;40708;50.364;7.550;2023-03-31T03:37:29;99216.00;;;11.15;100.00
54808;BME280;40708;50.364;7.550;2023-03-31T03:39:54;99227.78;;;11.03;100.00
54808;BME280;40708;50.364;7.550;2023-03-31T03:42:20;99215.34;;;11.05;100.00
54808;BME280;40708;50.364;7.550;2023-03-31T03:44:45;99207.38;;;11.04;100.00
54808;BME280;40708;50.364;7.550;2023-03-31T03:47:10;99218.00;;;11.05;100.00
54808;BME280;40708;50.364;7.550;2023-03-31T03:49:35;99207.09;;;11.17;100.00
54808;BME280;40708;50.364;7.550;2023-03-31T03:52:01;99194.63;;;11.21;100.00
54808;BME280;40708;50.364;7.550;2023-03-31T03:54:26;99190.09;;;11.26;100.00
54808;BME280;40708;50.364;7.550;2023-03-31T03:56:51;99178.59;;;11.27;100.00
54808;BME280;40708;50.364;7.550;2023-03-31T03:59:17;99178.53;;;11.28;100.00
54808;BME280;40708;50.364;7.550;2023-03-31T04:01:42;99163.53;;;11.27;100.00
54808;BME280;40708;50.364;7.550;2023-03-31T04:04:07;99164.38;;;11.28;100.00
54808;BME280;40708;50.364;7.550;2023-03-31T04:06:33;99162.53;;;11.33;100.00
54808;BME280;40708;50.364;7.550;2023-03-31T04:08:58;99164.28;;;11.32;100.00
54808;BME280;40708;50.364;7.550;2023-03-31T04:11:24;99155.38;;;11.35;100.00
54808;BME280;40708;50.364;7.550;2023-03-31T04:13:50;99136.66;;;11.41;100.00
54808;BME280;40708;50.364;7.550;2023-03-31T04:16:15;99135.78;;;11.41;100.00
54808;BME280;40708;50.364;7.550;2023-03-31T04:18:40;99130.47;;;11.41;100.00
54808;BME280;40708;50.364;7.550;2023-03-31T04:21:08;99128.66;;;11.43;100.00
54808;BME280;40708;50.364;7.550;2023-03-31T04:23:37;99128.75;;;11.38;100.00
54808;BME280;40708;50.364;7.550;2023-03-31T04:26:10;99127.00;;;11.39;100.00
54808;BME280;40708;50.364;7.550;2023-03-31T04:28:36;99115.56;;;11.35;100.00
54808;BME280;40708;50.364;7.550;2023-03-31T04:31:03;99122.75;;;11.30;100.00
54808;BME280;40708;50.364;7.550;2023-03-31T04:33:30;99114.94;;;11.24;100.00
54808;BME280;40708;50.364;7.550;2023-03-31T04:35:58;99108.81;;;11.20;100.00
54808;BME280;40708;50.364;7.550;2023-03-31T04:38:31;99101.09;;;11.10;100.00
54808;BME280;40708;50.364;7.550;2023-03-31T04:40:57;99099.50;;;11.03;100.00
54808;BME280;40708;50.364;7.550;2023-03-31T04:43:23;99095.22;;;10.97;100.00
54808;BME280;40708;50.364;7.550;2023-03-31T04:45:48;99098.03;;;10.90;100.00
54808;BME280;40708;50.364;7.550;2023-03-31T04:48:13;99107.84;;;10.85;100.00
54808;BME280;40708;50.364;7.550;2023-03-31T04:50:39;99103.66;;;10.76;100.00
54808;BME280;40708;50.364;7.550;2023-03-31T04:53:05;99106.38;;;10.71;100.00
54808;BME280;40708;50.364;7.550;2023-03-31T04:55:30;99118.00;;;10.66;100.00
54808;BME280;40708;50.364;7.550;2023-03-31T04:57:56;99122.41;;;10.67;100.00
54808;BME280;40708;50.364;7.550;2023-03-31T05:00:21;99119.72;;;10.68;100.00
54808;BME280;40708;50.364;7.550;2023-03-31T05:02:47;99114.44;;;10.67;100.00
54808;BME280;40708;50.364;7.550;2023-03-31T05:05:12;99118.00;;;10.66;100.00
54808;BME280;40708;50.364;7.550;2023-03-31T05:07:38;99121.59;;;10.63;100.00
54808;BME280;40708;50.364;7.550;2023-03-31T05:10:03;99118.00;;;10.66;100.00
54808;BME280;40708;50.364;7.550;2023-03-31T05:12:35;99124.25;;;10.63;100.00
54808;BME280;40708;50.364;7.550;2023-03-31T05:15:02;99127.81;;;10.61;100.00
54808;BME280;40708;50.364;7.550;2023-03-31T05:17:31;99123.41;;;10.60;100.00
54808;BME280;40708;50.364;7.550;2023-03-31T05:19:57;99128.81;;;10.55;100.00
54808;BME280;40708;50.364;7.550;2023-03-31T05:22:22;99124.44;;;10.54;100.00
54808;BME280;40708;50.364;7.550;2023-03-31T05:24:47;99127.16;;;10.51;100.00
54808;BME280;40708;50.364;7.550;2023-03-31T05:27:12;99132.47;;;10.50;100.00
54808;BME280;40708;50.364;7.550;2023-03-31T05:29:38;99121.97;;;10.44;100.00
54808;BME280;40708;50.364;7.550;2023-03-31T05:32:03;99125.63;;;10.40;100.00
54808;BME280;40708;50.364;7.550;2023-03-31T05:34:29;99126.56;;;10.37;100.00
54808;BME280;40708;50.364;7.550;2023-03-31T05:36:54;99123.06;;;10.34;100.00
54808;BME280;40708;50.364;7.550;2023-03-31T05:39:20;99128.50;;;10.28;100.00
54808;BME280;40708;50.364;7.550;2023-03-31T05:41:45;99128.50;;;10.28;100.00
54808;BME280;40708;50.364;7.550;2023-03-31T05:44:11;99129.47;;;10.22;100.00
54808;BME280;40708;50.364;7.550;2023-03-31T05:46:36;99125.13;;;10.20;100.00
54808;BME280;40708;50.364;7.550;2023-03-31T05:49:02;99134.00;;;10.17;100.00
54808;BME280;40708;50.364;7.550;2023-03-31T05:51:27;99125.13;;;10.20;100.00
54808;BME280;40708;50.364;7.550;2023-03-31T05:53:52;99119.81;;;10.21;100.00
54808;BME280;40708;50.364;7.550;2023-03-31T05:56:18;99122.50;;;10.16;100.00
54808;BME280;40708;50.364;7.550;2023-03-31T05:58:43;99124.22;;;10.21;100.00
54808;BME280;40708;50.364;7.550;2023-03-31T06:01:11;99117.25;;;10.15;100.00
54808;BME280;40708;50.364;7.550;2023-03-31T06:03:38;99131.44;;;10.12;100.00
54808;BME280;40708;50.364;7.550;2023-03-31T06:06:08;99127.00;;;10.11;100.00
54808;BME280;40708;50.364;7.550;2023-03-31T06:08:35;99119.91;;;10.15;100.00
54808;BME280;40708;50.364;7.550;2023-03-31T06:11:04;99119.91;;;10.15;100.00
54808;BME280;40708;50.364;7.550;2023-03-31T06:13:30;99118.16;;;10.14;100.00
54808;BME280;40708;50.364;7.550;2023-03-31T06:15:57;99106.69;;;10.12;100.00
54808;BME280;40708;50.364;7.550;2023-03-31T06:18:23;99095.22;;;10.13;100.00
54808;BME280;40708;50.364;7.550;2023-03-31T06:20:50;99089.88;;;10.14;100.00
54808;BME280;40708;50.364;7.550;2023-03-31T06:23:15;99074.94;;;10.10;100.00
54808;BME280;40708;50.364;7.550;2023-03-31T06:25:41;99065.16;;;10.14;100.00
54808;BME280;40708;50.364;7.550;2023-03-31T06:28:06;99064.25;;;10.15;100.00
54808;BME280;40708;50.364;7.550;2023-03-31T06:30:33;99053.72;;;10.13;100.00
54808;BME280;40708;50.364;7.550;2023-03-31T06:32:58;99061.50;;;10.20;100.00
54808;BME280;40708;50.364;7.550;2023-03-31T06:35:24;99051.78;;;10.22;100.00
54808;BME280;40708;50.364;7.550;2023-03-31T06:37:49;99052.66;;;10.21;100.00
54808;BME280;40708;50.364;7.550;2023-03-31T06:40:14;99032.31;;;10.23;100.00
54808;BME280;40708;50.364;7.550;2023-03-31T06:42:40;99031.31;;;10.28;100.00
54808;BME280;40708;50.364;7.550;2023-03-31T06:45:05;99021.56;;;10.29;100.00
54808;BME280;40708;50.364;7.550;2023-03-31T06:47:31;99005.63;;;10.30;100.00
54808;BME280;40708;50.364;7.550;2023-03-31T06:49:56;99002.84;;;10.38;100.00
54808;BME280;40708;50.364;7.550;2023-03-31T06:52:21;99005.44;;;10.41;100.00
54808;BME280;40708;50.364;7.550;2023-03-31T06:54:47;98993.63;;;10.54;100.00
54808;BME280;40708;50.364;7.550;2023-03-31T06:57:12;98982.09;;;10.55;100.00
54808;BME280;40708;50.364;7.550;2023-03-31T06:59:37;98975.78;;;10.60;100.00
54808;BME280;40708;50.364;7.550;2023-03-31T07:02:03;98974.75;;;10.67;100.00
54808;BME280;40708;50.364;7.550;2023-03-31T07:04:28;98980.84;;;10.71;100.00
54808;BME280;40708;50.364;7.550;2023-03-31T07:06:53;98979.88;;;10.75;100.00
54808;BME280;40708;50.364;7.550;2023-03-31T07:09:19;98989.59;;;10.76;100.00
54808;BME280;40708;50.364;7.550;2023-03-31T07:11:47;98977.09;;;10.81;100.00
54808;BME280;40708;50.364;7.550;2023-03-31T07:14:12;98976.22;;;10.81;100.00
54808;BME280;40708;50.364;7.550;2023-03-31T07:16:38;98967.16;;;10.89;100.00
54808;BME280;40708;50.364;7.550;2023-03-31T07:19:03;98953.91;;;10.88;100.00
54808;BME280;40708;50.364;7.550;2023-03-31T07:21:30;98943.97;;;10.96;100.00
54808;BME280;40708;50.364;7.550;2023-03-31T07:23:55;98946.56;;;11.00;100.00
54808;BME280;40708;50.364;7.550;2023-03-31T07:26:20;98950.66;;;11.12;100.00
54808;BME280;40708;50.364;7.550;2023-03-31T07:28:46;98943.28;;;11.23;100.00
54808;BME280;40708;50.364;7.550;2023-03-31T07:31:13;98944.47;;;11.45;100.00
54808;BME280;40708;50.364;7.550;2023-03-31T07:33:39;98929.19;;;11.53;100.00
54808;BME280;40708;50.364;7.550;2023-03-31T07:36:05;98932.72;;;11.54;100.00
54808;BME280;40708;50.364;7.550;2023-03-31T07:38:30;98931.53;;;11.65;100.00
54808;BME280;40708;50.364;7.550;2023-03-31T07:40:56;98931.78;;;11.88;100.00
54808;BME280;40708;50.364;7.550;2023-03-31T07:43:21;98915.47;;;12.01;100.00
54808;BME280;40708;50.364;7.550;2023-03-31T07:45:46;98907.97;;;12.15;100.00
54808;BME280;40708;50.364;7.550;2023-03-31T07:48:12;98902.75;;;12.39;100.00
54808;BME280;40708;50.364;7.550;2023-03-31T07:50:37;98882.22;;;12.44;100.00
54808;BME280;40708;50.364;7.550;2023-03-31T07:53:02;98873.50;;;12.39;100.00
54808;BME280;40708;50.364;7.550;2023-03-31T07:55:28;98863.34;;;12.52;100.00
54808;BME280;40708;50.364;7.550;2023-03-31T07:57:53;98843.78;;;12.53;100.00
54808;BME280;40708;50.364;7.550;2023-03-31T08:00:19;98853.31;;;12.60;100.00
54808;BME280;40708;50.364;7.550;2023-03-31T08:02:45;98842.25;;;12.46;100.00
54808;BME280;40708;50.364;7.550;2023-03-31T08:05:12;98846.78;;;12.70;100.00
54808;BME280;40708;50.364;7.550;2023-03-31T08:07:39;98829.03;;;12.71;100.00
54808;BME280;40708;50.364;7.550;2023-03-31T08:10:08;98819.81;;;13.05;100.00
54808;BME280;40708;50.364;7.550;2023-03-31T08:12:34;98812.41;;;13.63;100.00
54808;BME280;40708;50.364;7.550;2023-03-31T08:14:59;98803.69;;;13.35;100.00
54808;BME280;40708;50.364;7.550;2023-03-31T08:17:25;98798.03;;;13.44;100.00
54808;BME280;40708;50.364;7.550;2023-03-31T08:19:50;98794.78;;;13.36;100.00
54808;BME280;40708;50.364;7.550;2023-03-31T08:22:16;98791.72;;;13.46;100.00
54808;BME280;40708;50.364;7.550;2023-03-31T08:24:41;98791.34;;;14.02;100.00
54808;BME280;40708;50.364;7.550;2023-03-31T08:27:06;98791.75;;;14.36;100.00
54808;BME280;40708;50.364;7.550;2023-03-31T08:29:32;98790.91;;;14.77;100.00
54808;BME280;40708;50.364;7.550;2023-03-31T08:31:57;98762.97;;;14.44;100.00
54808;BME280;40708;50.364;7.550;2023-03-31T08:34:23;98764.38;;;14.09;100.00
54808;BME280;40708;50.364;7.550;2023-03-31T08:36:48;98776.97;;;14.27;100.00
54808;BME280;40708;50.364;7.550;2023-03-31T08:39:13;98771.56;;;13.86;100.00
54808;BME280;40708;50.364;7.550;2023-03-31T08:41:59;98783.97;;;13.63;100.00
54808;BME280;40708;50.364;7.550;2023-03-31T08:44:36;98796.47;;;13.38;100.00
54808;BME280;40708;50.364;7.550;2023-03-31T08:47:04;98809.53;;;13.21;100.00
54808;BME280;40708;50.364;7.550;2023-03-31T08:49:39;98813.69;;;13.03;100.00
54808;BME280;40708;50.364;7.550;2023-03-31T08:52:11;98818.00;;;13.07;100.00
54808;BME280;40708;50.364;7.550;2023-03-31T08:54:45;98823.31;;;13.07;100.00
54808;BME280;40708;50.364;7.550;2023-03-31T08:57:19;98823.00;;;13.17;100.00
54808;BME280;40708;50.364;7.550;2023-03-31T08:59:47;98821.84;;;12.99;100.00
54808;BME280;40708;50.364;7.550;2023-03-31T09:02:18;98814.81;;;12.96;100.00
54808;BME280;40708;50.364;7.550;2023-03-31T09:05:03;98801.94;;;12.84;100.00
54808;BME280;40708;50.364;7.550;2023-03-31T09:07:58;98786.72;;;12.63;100.00
54808;BME280;40708;50.364;7.550;2023-03-31T09:10:37;98794.47;;;12.44;100.00
54808;BME280;40708;50.364;7.550;2023-03-31T09:15:36;98801.56;;;12.44;100.00
54808;BME280;40708;50.364;7.550;2023-03-31T09:18:36;98822.31;;;12.59;100.00
54808;BME280;40708;50.364;7.550;2023-03-31T09:21:10;98815.09;;;12.63;100.00
54808;BME280;40708;50.364;7.550;2023-03-31T09:24:07;98815.22;;;12.60;100.00
54808;BME280;40708;50.364;7.550;2023-03-31T09:26:57;98810.91;;;12.55;100.00
54808;BME280;40708;50.364;7.550;2023-03-31T09:29:42;98801.75;;;12.38;100.00
54808;BME280;40708;50.364;7.550;2023-03-31T09:32:29;98800.97;;;12.34;100.00
54808;BME280;40708;50.364;7.550;2023-03-31T09:34:59;98786.31;;;12.23;100.00
54808;BME280;40708;50.364;7.550;2023-03-31T09:37:29;98771.94;;;12.28;100.00
54808;BME280;40708;50.364;7.550;2023-03-31T09:40:03;98779.31;;;12.46;100.00
54808;BME280;40708;50.364;7.550;2023-03-31T09:42:33;98778.88;;;12.59;100.00
54808;BME280;40708;50.364;7.550;2023-03-31T09:44:58;98767.59;;;12.52;100.00
54808;BME280;40708;50.364;7.550;2023-03-31T09:47:30;98770.50;;;12.71;100.00
54808;BME280;40708;50.364;7.550;2023-03-31T09:49:56;98768.16;;;12.86;100.00
54808;BME280;40708;50.364;7.550;2023-03-31T09:52:42;98752.47;;;13.03;100.00
54808;BME280;40708;50.364;7.550;2023-03-31T09:55:19;98750.38;;;13.36;100.00
54808;BME280;40708;50.364;7.550;2023-03-31T09:57:45;98756.84;;;13.04;100.00
54808;BME280;40708;50.364;7.550;2023-03-31T10:02:47;98773.94;;;12.74;100.00
54808;BME280;40708;50.364;7.550;2023-03-31T10:05:33;98767.91;;;12.43;100.00
54808;BME280;40708;50.364;7.550;2023-03-31T10:10:54;98794.41;;;11.90;100.00
54808;BME280;40708;50.364;7.550;2023-03-31T10:13:25;98777.28;;;11.71;100.00
54808;BME280;40708;50.364;7.550;2023-03-31T10:15:54;98778.59;;;11.27;100.00
54808;BME280;40708;50.364;7.550;2023-03-31T10:18:32;98814.97;;;10.58;100.00
54808;BME280;40708;50.364;7.550;2023-03-31T10:20:59;98775.94;;;10.63;100.00
54808;BME280;40708;50.364;7.550;2023-03-31T10:23:29;98794.06;;;10.80;100.00
54808;BME280;40708;50.364;7.550;2023-03-31T10:25:56;98787.38;;;10.99;100.00
54808;BME280;40708;50.364;7.550;2023-03-31T10:28:22;98803.78;;;11.44;100.00
54808;BME280;40708;50.364;7.550;2023-03-31T10:30:51;98802.44;;;11.89;100.00
54808;BME280;40708;50.364;7.550;2023-03-31T10:33:21;98783.56;;;12.52;100.00
54808;BME280;40708;50.364;7.550;2023-03-31T10:35:53;98783.16;;;13.13;100.00
54808;BME280;40708;50.364;7.550;2023-03-31T10:38:25;98743.59;;;13.28;100.00
54808;BME280;40708;50.364;7.550;2023-03-31T10:40:54;98721.66;;;13.44;100.00
54808;BME280;40708;50.364;7.550;2023-03-31T10:43:36;98703.63;;;13.51;100.00
54808;BME280;40708;50.364;7.550;2023-03-31T10:46:04;98713.19;;;13.78;100.00
54808;BME280;40708;50.364;7.550;2023-03-31T10:48:36;98704.50;;;13.96;100.00
54808;BME280;40708;50.364;7.550;2023-03-31T10:51:17;98709.19;;;13.68;100.00
54808;BME280;40708;50.364;7.550;2023-03-31T10:53:45;98703.50;;;13.54;100.00
54808;BME280;40708;50.364;7.550;2023-03-31T10:56:31;98708.81;;;13.55;100.00
54808;BME280;40708;50.364;7.550;2023-03-31T11:05:12;98694.63;;;12.84;100.00
54808;BME280;40708;50.364;7.550;2023-03-31T11:10:45;98687.34;;;12.64;100.00
54808;BME280;40708;50.364;7.550;2023-03-31T11:13:30;98691.69;;;12.42;100.00
54808;BME280;40708;50.364;7.550;2023-03-31T11:30:13;98672.06;;;12.94;100.00
54808;BME280;40708;50.364;7.550;2023-03-31T11:33:07;98648.34;;;13.13;100.00
54808;BME280;40708;50.364;7.550;2023-03-31T11:41:32;98633.25;;;14.62;100.00
54808;BME280;40708;50.364;7.550;2023-03-31T11:44:04;98637.91;;;14.96;100.00
54808;BME280;40708;50.364;7.550;2023-03-31T11:46:53;98643.63;;;14.68;100.00
54808;BME280;40708;50.364;7.550;2023-03-31T11:49:26;98644.69;;;14.44;100.00
54808;BME280;40708;50.364;7.550;2023-03-31T11:52:02;98644.59;;;14.25;100.00
54808;BME280;40708;50.364;7.550;2023-03-31T11:54:50;98624.13;;;14.25;100.00
54808;BME280;40708;50.364;7.550;2023-03-31T11:57:26;98622.34;;;14.26;100.00
54808;BME280;40708;50.364;7.550;2023-03-31T11:59:57;98635.47;;;14.10;100.00
54808;BME280;40708;50.364;7.550;2023-03-31T12:02:46;98632.84;;;13.89;100.00
54808;BME280;40708;50.364;7.550;2023-03-31T12:05:14;98624.97;;;13.64;100.00
54808;BME280;40708;50.364;7.550;2023-03-31T12:07:51;98632.47;;;13.54;100.00
54808;BME280;40708;50.364;7.550;2023-03-31T12:10:22;98638.41;;;13.39;100.00
54808;BME280;40708;50.364;7.550;2023-03-31T12:12:58;98631.59;;;13.54;100.00
54808;BME280;40708;50.364;7.550;2023-03-31T12:15:36;98625.50;;;13.94;100.00
54808;BME280;40708;50.364;7.550;2023-03-31T12:18:12;98607.38;;;14.22;100.00
54808;BME280;40708;50.364;7.550;2023-03-31T12:20:41;98604.44;;;14.68;100.00
54808;BME280;40708;50.364;7.550;2023-03-31T12:23:14;98586.38;;;15.12;100.00
54808;BME280;40708;50.364;7.550;2023-03-31T12:26:01;98574.09;;;15.64;100.00
54808;BME280;40708;50.364;7.550;2023-03-31T12:28:33;98575.66;;;15.68;100.00
54808;BME280;40708;50.364;7.550;2023-03-31T12:31:03;98564.38;;;15.97;100.00
54808;BME280;40708;50.364;7.550;2023-03-31T12:33:37;98541.91;;;16.34;100.00
54808;BME280;40708;50.364;7.550;2023-03-31T12:36:50;98539.69;;;16.59;100.00
54808;BME280;40708;50.364;7.550;2023-03-31T12:45:12;98524.22;;;16.97;100.00
54808;BME280;40708;50.364;7.550;2023-03-31T12:53:59;98517.84;;;17.31;100.00
54808;BME280;40708;50.364;7.550;2023-03-31T12:59:31;98509.00;;;16.98;100.00
54808;BME280;40708;50.364;7.550;2023-03-31T13:04:39;98499.84;;;17.17;100.00
54808;BME280;40708;50.364;7.550;2023-03-31T13:07:13;98492.03;;;17.44;100.00
54808;BME280;40708;50.364;7.550;2023-03-31T13:12:38;98483.69;;;17.80;100.00
54808;BME280;40708;50.364;7.550;2023-03-31T13:15:04;98470.84;;;17.40;100.00
54808;BME280;40708;50.364;7.550;2023-03-31T13:17:33;98487.91;;;16.92;100.00
54808;BME280;40708;50.364;7.550;2023-03-31T13:20:25;98468.63;;;16.85;100.00
54808;BME280;40708;50.364;7.550;2023-03-31T13:25:42;98484.72;;;17.01;100.00
54808;BME280;40708;50.364;7.550;2023-03-31T13:30:50;98488.69;;;17.25;100.00
54808;BME280;40708;50.364;7.550;2023-03-31T13:36:13;98481.00;;;17.03;100.00
54808;BME280;40708;50.364;7.550;2023-03-31T13:41:29;98466.94;;;16.51;100.00
54808;BME280;40708;50.364;7.550;2023-03-31T13:52:58;98471.84;;;16.11;100.00
54808;BME280;40708;50.364;7.550;2023-03-31T13:56:00;98473.75;;;16.08;100.00
54808;BME280;40708;50.364;7.550;2023-03-31T13:58:43;98479.31;;;16.04;100.00
54808;BME280;40708;50.364;7.550;2023-03-31T14:06:56;98484.47;;;15.74;100.00
54808;BME280;40708;50.364;7.550;2023-03-31T14:09:30;98476.81;;;16.01;100.00
54808;BME280;40708;50.364;7.550;2023-03-31T14:12:00;98481.00;;;15.55;100.00
54808;BME280;40708;50.364;7.550;2023-03-31T14:14:42;98492.41;;;15.59;100.00
54808;BME280;40708;50.364;7.550;2023-03-31T14:17:08;98495.69;;;15.28;100.00
54808;BME280;40708;50.364;7.550;2023-03-31T14:25:45;98652.00;;;11.57;100.00
54808;BME280;40708;50.364;7.550;2023-03-31T14:28:42;98881.00;;;11.67;100.00
54808;BME280;40708;50.364;7.550;2023-03-31T14:31:24;98801.41;;;11.64;100.00
54808;BME280;40708;50.364;7.550;2023-03-31T14:34:21;98748.34;;;11.62;100.00
54808;BME280;40708;50.364;7.550;2023-03-31T14:36:59;98718.94;;;11.68;100.00
54808;BME280;40708;50.364;7.550;2023-03-31T14:39:30;98700.16;;;11.74;100.00
54808;BME280;40708;50.364;7.550;2023-03-31T14:42:02;98677.28;;;11.70;100.00
54808;BME280;40708;50.364;7.550;2023-03-31T14:44:28;98666.50;;;11.75;100.00
54808;BME280;40708;50.364;7.550;2023-03-31T14:46:56;98649.75;;;11.73;100.00
54808;BME280;40708;50.364;7.550;2023-03-31T14:52:00;98628.06;;;11.85;100.00
54808;BME280;40708;50.364;7.550;2023-03-31T14:54:33;98615.56;;;11.88;100.00
54808;BME280;40708;50.364;7.550;2023-03-31T14:56:58;98621.59;;;11.93;100.00
54808;BME280;40708;50.364;7.550;2023-03-31T14:59:30;98621.56;;;11.95;100.00
54808;BME280;40708;50.364;7.550;2023-03-31T15:01:57;98610.72;;;12.01;100.00
54808;BME280;40708;50.364;7.550;2023-03-31T15:04:27;98602.91;;;11.97;100.00
54808;BME280;40708;50.364;7.550;2023-03-31T15:06:53;98604.44;;;12.04;100.00
54808;BME280;40708;50.364;7.550;2023-03-31T15:09:28;98610.34;;;12.12;100.00
54808;BME280;40708;50.364;7.550;2023-03-31T15:12:07;98614.69;;;12.14;100.00